Time;durP1;ratioP1;P1;durP2;ratioP2;P2;SDS_P1;SDS_P2;PMS_P1;PMS_P2;Temp;Humidity;BMP_temperature;BMP_pressure;BME280_temperature;BME280_humidity;BME280_pressure;Samples;Min_cycle;Max_cycle;Signal;HPM_P1;HPM_P2
2022/10/13 00:00:50;;;;;;;26.77;17.80;;;;;;;;;;5048451;28;20025;-59
2022/10/13 00:03:16;;;;;;;30.13;17.80;;;;;;;;;;5033134;28;20060;-60
2022/10/13 00:05:43;;;;;;;20.55;17.15;;;;;;;;;;5051118;28;20024;-60
2022/10/13 00:08:10;;;;;;;30.95;18.33;;;;;;;;;;5042830;28;20033;-61
2022/10/13 00:10:37;;;;;;;25.40;17.83;;;;;;;;;;5031236;28;20488;-60
2022/10/13 00:13:04;;;;;;;27.58;17.42;;;;;;;;;;5047082;28;20040;-60
2022/10/13 00:15:30;;;;;;;27.77;16.50;;;;;;;;;;5050657;28;20078;-59
2022/10/13 00:17:56;;;;;;;31.85;17.50;;;;;;;;;;5050652;28;20036;-60
2022/10/13 00:20:22;;;;;;;29.30;17.75;;;;;;;;;;5049161;28;20025;-60
2022/10/13 00:22:48;;;;;;;27.02;16.73;;;;;;;;;;5035512;28;20171;-59
2022/10/13 00:25:14;;;;;;;29.77;18.08;;;;;;;;;;5034849;28;20498;-58
2022/10/13 00:27:40;;;;;;;33.03;17.80;;;;;;;;;;5036251;28;20101;-60
2022/10/13 00:30:06;;;;;;;29.80;19.25;;;;;;;;;;5044208;28;20022;-59
2022/10/13 00:32:32;;;;;;;25.85;18.05;;;;;;;;;;5047475;28;20120;-59
2022/10/13 00:34:58;;;;;;;28.95;18.58;;;;;;;;;;5052691;28;20020;-59
2022/10/13 00:37:24;;;;;;;29.55;18.58;;;;;;;;;;5053989;28;20107;-61
2022/10/13 00:39:50;;;;;;;28.33;19.23;;;;;;;;;;5054002;28;20029;-60
2022/10/13 00:42:17;;;;;;;30.00;18.02;;;;;;;;;;5044137;28;20033;-60
2022/10/13 00:45:01;;;;;;;25.85;17.92;;;;;;;;;;5041100;28;20021;-61
2022/10/13 00:47:33;;;;;;;26.42;17.08;;;;;;;;;;5040807;28;20030;-60
2022/10/13 00:50:00;;;;;;;34.58;17.58;;;;;;;;;;5039106;28;20021;-57
2022/10/13 00:52:26;;;;;;;31.02;19.63;;;;;;;;;;5043402;28;20099;-60
2022/10/13 00:54:52;;;;;;;31.75;18.27;;;;;;;;;;5034346;28;20095;-61
2022/10/13 00:57:19;;;;;;;25.53;17.93;;;;;;;;;;5034194;28;20083;-60
2022/10/13 00:59:46;;;;;;;27.13;17.70;;;;;;;;;;5041537;28;20379;-59
2022/10/13 01:02:12;;;;;;;27.70;18.83;;;;;;;;;;5042517;28;20044;-60
2022/10/13 01:04:42;;;;;;;37.70;18.15;;;;;;;;;;5035270;28;20032;-61
2022/10/13 01:07:08;;;;;;;31.77;19.33;;;;;;;;;;5033955;28;20025;-60
2022/10/13 01:09:36;;;;;;;31.27;19.37;;;;;;;;;;5035057;28;20078;-60
2022/10/13 01:12:21;;;;;;;29.17;18.13;;;;;;;;;;5040478;28;20044;-59
2022/10/13 01:14:52;;;;;;;53.10;21.15;;;;;;;;;;5053177;28;20536;-60
2022/10/13 01:17:18;;;;;;;34.53;19.23;;;;;;;;;;5053781;28;20021;-60
2022/10/13 01:20:04;;;;;;;24.20;18.15;;;;;;;;;;5050343;28;20079;-59
2022/10/13 01:22:30;;;;;;;31.45;19.15;;;;;;;;;;5044424;28;20144;-60
2022/10/13 01:25:19;;;;;;;30.55;18.23;;;20.30;69.20;;;;;;5052399;28;20487;-59
2022/10/13 01:27:47;;;;;;;28.27;17.95;;;16.10;77.40;;;;;;5042546;28;20039;-60
2022/10/13 01:30:18;;;;;;;31.45;18.10;;;15.90;77.30;;;;;;5051517;28;20033;-59
2022/10/13 01:33:12;;;;;;;29.58;17.70;;;15.80;77.30;;;;;;5046378;28;20056;-60
2022/10/13 01:35:52;;;;;;;30.85;20.35;;;15.80;77.60;;;;;;5041299;28;20037;-60
2022/10/13 01:38:49;;;;;;;32.80;19.35;;;15.80;77.50;;;;;;5031985;28;20059;-60
2022/10/13 01:41:17;;;;;;;34.08;20.23;;;15.70;77.70;;;;;;5032837;28;20504;-59
2022/10/13 01:43:50;;;;;;;30.90;19.48;;;15.70;77.30;;;;;;5034641;28;20091;-59
2022/10/13 01:46:22;;;;;;;31.80;19.55;;;15.80;77.30;;;;;;5048012;28;20029;-60
2022/10/13 01:48:49;;;;;;;29.80;19.17;;;15.80;77.10;;;;;;5034450;28;20438;-58
2022/10/13 01:51:18;;;;;;;27.17;19.00;;;15.80;76.90;;;;;;5044203;28;20092;-60
2022/10/13 01:53:45;;;;;;;30.30;19.98;;;15.80;76.80;;;;;;5042105;28;20040;-60
2022/10/13 01:56:11;;;;;;;34.25;20.83;;;15.80;76.70;;;;;;5052722;28;20067;-59
2022/10/13 01:58:37;;;;;;;27.05;20.38;;;15.80;76.90;;;;;;5051907;28;20060;-60
2022/10/13 02:01:15;;;;;;;27.75;19.52;;;15.80;76.90;;;;;;5044155;28;20051;-59
2022/10/13 02:04:15;;;;;;;28.55;19.13;;;15.70;77.00;;;;;;5045100;28;20079;-60
2022/10/13 02:06:46;;;;;;;29.38;19.20;;;;;;;;;;5032911;28;20503;-60
2022/10/13 02:09:18;;;;;;;31.98;19.60;;;;;;;;;;5032799;28;20021;-57
2022/10/13 02:12:02;;;;;;;30.33;20.08;;;;;;;;;;5032753;28;20029;-59
2022/10/13 02:14:29;;;;;;;34.95;21.00;;;;;;;;;;5049733;28;20029;-59
2022/10/13 02:16:57;;;;;;;32.58;20.15;;;;;;;;;;5072084;28;20099;-59
2022/10/13 02:19:23;;;;;;;33.75;20.95;;;;;;;;;;5044078;28;20052;-59
2022/10/13 02:21:50;;;;;;;27.50;18.77;;;;;;;;;;5050690;28;20037;-60
2022/10/13 02:24:16;;;;;;;32.38;20.52;;;;;;;;;;5039396;28;20776;-60
2022/10/13 02:26:42;;;;;;;28.95;19.42;;;;;;;;;;5035907;28;20400;-60
2022/10/13 02:29:13;;;;;;;31.05;19.52;;;;;;;;;;5056454;28;20027;-59
2022/10/13 02:31:40;;;;;;;29.65;20.13;;;;;;;;;;5071181;28;20052;-59
2022/10/13 02:34:06;;;;;;;35.15;19.95;;;;;;;;;;5057364;28;20029;-60
2022/10/13 02:36:33;;;;;;;27.33;18.97;;;;;;;;;;5052190;28;20502;-59
2022/10/13 02:38:59;;;;;;;27.67;20.05;;;;;;;;;;5051526;28;20670;-60
2022/10/13 02:41:25;;;;;;;25.98;19.42;;;;;;;;;;5043430;28;20111;-60
2022/10/13 02:43:51;;;;;;;30.13;19.80;;;;;;;;;;5044037;28;20025;-60
2022/10/13 02:46:17;;;;;;;27.02;17.42;;;;;;;;;;5057123;23;20826;-61
2022/10/13 02:48:43;;;;;;;32.47;21.15;;;;;;;;;;5050873;28;20029;-61
2022/10/13 02:51:09;;;;;;;32.53;19.80;;;;;;;;;;5051254;28;20029;-61
2022/10/13 02:53:35;;;;;;;31.50;21.40;;;;;;;;;;5050230;28;20403;-58
2022/10/13 02:56:01;;;;;;;33.17;20.60;;;;;;;;;;5051570;28;20407;-58
2022/10/13 02:58:27;;;;;;;31.35;19.92;;;;;;;;;;5041109;28;20090;-61
2022/10/13 03:00:53;;;;;;;29.00;20.02;;;;;;;;;;5039245;28;20032;-61
2022/10/13 03:03:19;;;;;;;29.67;21.33;;;;;;;;;;5038865;28;20483;-60
2022/10/13 03:05:45;;;;;;;27.55;18.88;;;;;;;;;;5040692;28;20029;-61
2022/10/13 03:08:11;;;;;;;34.08;20.58;;;;;;;;;;5043350;28;20022;-61
2022/10/13 03:10:37;;;;;;;32.92;19.60;;;;;;;;;;5031823;28;20107;-61
2022/10/13 03:13:03;;;;;;;31.20;19.75;;;15.70;77.70;;;;;;5034901;28;20029;-61
2022/10/13 03:15:29;;;;;;;26.40;19.23;;;15.00;78.50;;;;;;5064366;28;20062;-61
2022/10/13 03:17:55;;;;;;;34.45;20.73;;;;;;;;;;5068741;28;20493;-59
2022/10/13 03:20:21;;;;;;;34.45;19.98;;;;;;;;;;5050787;28;20035;-61
2022/10/13 03:22:47;;;;;;;30.58;21.08;;;;;;;;;;5032079;28;20029;-61
2022/10/13 03:25:13;;;;;;;32.20;21.57;;;;;;;;;;5045634;28;20490;-60
2022/10/13 03:27:39;;;;;;;36.70;21.73;;;;;;;;;;5043116;28;20526;-61
2022/10/13 03:30:06;;;;;;;33.10;21.58;;;;;;;;;;5031697;28;20033;-60
2022/10/13 03:32:32;;;;;;;36.22;22.58;;;;;;;;;;5035848;28;20097;-60
2022/10/13 03:34:58;;;;;;;34.72;21.63;;;;;;;;;;5047964;28;20063;-60
2022/10/13 03:37:24;;;;;;;33.45;22.05;;;;;;;;;;5051342;28;20438;-58
2022/10/13 03:39:50;;;;;;;32.35;21.33;;;;;;;;;;5040452;28;20513;-61
2022/10/13 03:42:16;;;;;;;31.25;19.92;;;;;;;;;;5048625;28;20439;-61
2022/10/13 03:44:42;;;;;;;28.85;21.55;;;;;;;;;;5032397;28;20549;-59
2022/10/13 03:47:08;;;;;;;33.95;21.58;;;;;;;;;;5031920;28;20057;-61
2022/10/13 03:49:34;;;;;;;36.05;22.88;;;;;;;;;;5038669;28;20029;-61
2022/10/13 03:52:00;;;;;;;37.63;22.73;;;;;;;;;;5051193;28;20021;-60
2022/10/13 03:54:26;;;;;;;31.65;20.70;;;;;;;;;;5050361;28;20033;-62
2022/10/13 03:56:52;;;;;;;28.65;22.27;;;;;;;;;;5051103;28;20482;-58
2022/10/13 03:59:18;;;;;;;38.95;22.45;;;;;;;;;;5053596;28;20108;-60
2022/10/13 04:01:45;;;;;;;36.33;22.80;;;;;;;;;;5053401;28;20151;-60
2022/10/13 04:04:11;;;;;;;37.57;24.07;;;;;;;;;;5054271;28;20025;-60
2022/10/13 04:06:38;;;;;;;32.38;22.95;;;;;;;;;;5055087;28;20122;-60
2022/10/13 04:09:04;;;;;;;32.97;22.60;;;;;;;;;;5054995;28;20021;-59
2022/10/13 04:11:30;;;;;;;35.00;23.55;;;;;;;;;;5055075;28;20028;-59
2022/10/13 04:13:57;;;;;;;40.03;24.15;;;;;;;;;;5055090;28;20033;-59
2022/10/13 04:16:24;;;;;;;33.25;23.10;;;;;;;;;;5054888;28;20032;-58
2022/10/13 04:18:51;;;;;;;33.50;21.92;;;;;;;;;;5054696;28;20446;-59
2022/10/13 04:21:17;;;;;;;;;;;;;;;;;;5055252;28;20108;-60
2022/10/13 04:23:43;;;;;;;31.08;21.77;;;;;;;;;;5054915;28;20385;-60
2022/10/13 04:26:15;;;;;;;30.08;22.20;;;;;;;;;;5054722;28;20067;-60
2022/10/13 04:28:41;;;;;;;34.08;21.75;;;;;;;;;;5054667;28;20013;-60
2022/10/13 04:31:07;;;;;;;32.85;23.08;;;;;;;;;;5054722;28;20029;-61
2022/10/13 04:33:33;;;;;;;33.05;23.08;;;;;;;;;;5053286;28;20112;-60
2022/10/13 04:36:02;;;;;;;35.92;22.85;;;;;;;;;;5054403;28;20479;-60
2022/10/13 04:38:29;;;;;;;36.25;23.23;;;;;;;;;;5053155;28;20021;-60
2022/10/13 04:40:55;;;;;;;33.75;22.13;;;;;;;;;;5054634;28;20059;-60
2022/10/13 04:43:21;;;;;;;31.10;23.40;;;;;;;;;;5054843;28;20098;-61
2022/10/13 04:45:47;;;;;;;34.08;24.30;;;;;;;;;;5054536;28;20028;-57
2022/10/13 04:48:13;;;;;;;31.77;22.17;;;;;;;;;;5054228;28;20028;-59
2022/10/13 04:50:39;;;;;;;36.47;23.58;;;14.90;78.80;;;;;;5054346;28;20479;-60
2022/10/13 04:53:05;;;;;;;32.75;22.80;;;;;;;;;;5054420;28;20028;-57
2022/10/13 04:55:31;;;;;;;33.85;24.17;;;;;;;;;;5054405;28;20560;-59
2022/10/13 04:57:57;;;;;;;39.63;24.38;;;;;;;;;;5054242;28;20028;-60
2022/10/13 05:00:23;;;;;;;39.42;24.88;;;;;;;;;;5053995;28;20025;-59
2022/10/13 05:02:49;;;;;;;33.97;23.35;;;;;;;;;;5053997;28;20033;-58
2022/10/13 05:05:15;;;;;;;32.00;23.85;;;14.30;81.20;;;;;;5053975;28;20543;-60
2022/10/13 05:07:41;;;;;;;36.30;21.75;;;;;;;;;;5054030;28;20100;-59
2022/10/13 05:10:07;;;;;;;35.70;22.85;;;14.20;81.20;;;;;;5052993;28;20063;-59
2022/10/13 05:12:33;;;;;;;32.00;22.27;;;13.80;82.00;;;;;;5052788;28;20025;-57
2022/10/13 05:14:59;;;;;;;43.50;23.03;;;13.60;82.40;;;;;;5053791;28;20037;-61
2022/10/13 05:17:25;;;;;;;49.08;23.27;;;13.70;82.30;;;;;;5053772;28;20259;-58
2022/10/13 05:19:51;;;;;;;46.10;24.40;;;13.70;81.90;;;;;;5053636;28;20056;-58
2022/10/13 05:22:17;;;;;;;37.72;23.83;;;13.90;81.60;;;;;;5053803;28;20028;-58
2022/10/13 05:24:43;;;;;;;30.65;22.13;;;13.90;81.10;;;;;;5053805;28;20022;-59
2022/10/13 05:27:11;;;;;;;42.28;23.63;;;;;;;;;;5053640;28;20402;-59
2022/10/13 05:29:36;;;;;;;34.80;24.20;;;13.90;80.90;;;;;;5053417;28;20388;-59
2022/10/13 05:32:03;;;;;;;37.50;23.67;;;13.50;82.20;;;;;;5053539;28;20143;-59
2022/10/13 05:34:28;;;;;;;34.17;22.57;;;13.50;82.20;;;;;;5053525;28;20017;-61
2022/10/13 05:36:54;;;;;;;34.45;22.75;;;13.40;82.40;;;;;;5053395;28;20256;-60
2022/10/13 05:39:20;;;;;;;39.13;22.90;;;13.40;82.90;;;;;;5053275;28;20061;-57
2022/10/13 05:41:46;;;;;;;33.28;22.30;;;;;;;;;;5053407;28;20020;-57
2022/10/13 05:44:12;;;;;;;38.40;24.52;;;;;;;;;;5053350;28;20025;-59
2022/10/13 05:46:38;;;;;;;35.28;21.50;;;;;;;;;;5053255;28;20192;-59
2022/10/13 05:49:04;;;;;;;36.63;23.33;;;13.30;82.90;;;;;;5053142;28;20025;-60
2022/10/13 05:51:31;;;;;;;41.85;22.58;;;13.50;82.20;;;;;;5053317;28;20443;-58
2022/10/13 05:54:06;;;;;;;39.78;22.80;;;13.60;81.80;;;;;;5053239;28;20038;-60
2022/10/13 05:56:40;;;;;;;37.10;21.80;;;13.60;81.70;;;;;;5053203;28;20060;-59
2022/10/13 05:59:08;;;;;;;38.95;23.35;;;13.50;82.40;;;;;;5053014;28;20414;-59
2022/10/13 06:01:37;;;;;;;35.30;23.10;;;13.60;82.20;;;;;;5051675;28;20040;-59
2022/10/13 06:04:07;;;;;;;32.72;23.20;;;13.60;81.80;;;;;;5052972;28;20032;-61
2022/10/13 06:06:33;;;;;;;35.33;23.00;;;13.80;81.50;;;;;;5052912;28;20502;-58
2022/10/13 06:09:00;;;;;;;38.15;23.77;;;13.80;81.10;;;;;;5052802;28;20028;-60
2022/10/13 06:11:25;;;;;;;37.00;24.52;;;13.90;80.90;;;;;;5052902;28;20096;-59
2022/10/13 06:13:51;;;;;;;46.03;24.08;;;14.00;80.70;;;;;;5052742;28;20112;-59
2022/10/13 06:16:17;;;;;;;40.30;24.00;;;14.00;80.70;;;;;;5052629;28;20099;-60
2022/10/13 06:18:42;;;;;;;37.83;24.98;;;14.10;80.70;;;;;;5051285;28;20083;-59
2022/10/13 06:21:08;;;;;;;42.65;26.73;;;13.80;81.90;;;;;;5052526;28;20029;-59
2022/10/13 06:23:34;;;;;;;41.90;27.08;;;13.50;83.90;;;;;;5052637;28;20104;-58
2022/10/13 06:26:00;;;;;;;46.72;27.33;;;13.50;84.20;;;;;;5052447;28;20091;-57
2022/10/13 06:28:26;;;;;;;43.25;26.20;;;13.40;84.50;;;;;;5052304;28;20032;-58
2022/10/13 06:30:54;;;;;;;38.77;26.27;;;;;;;;;;5052484;28;20032;-60
2022/10/13 06:33:21;;;;;;;43.90;26.85;;;13.60;84.40;;;;;;5052373;28;20036;-59
2022/10/13 06:35:47;;;;;;;40.40;25.98;;;;;;;;;;5052528;28;20060;-59
2022/10/13 06:38:13;;;;;;;35.97;26.02;;;;;;;;;;5052122;28;20029;-60
2022/10/13 06:40:39;;;;;;;36.10;24.65;;;13.70;84.80;;;;;;5052161;28;20300;-57
2022/10/13 06:43:05;;;;;;;44.33;29.65;;;;;;;;;;5052254;28;20126;-58
2022/10/13 06:45:31;;;;;;;50.40;30.02;;;;;;;;;;5052125;28;20021;-60
2022/10/13 06:47:57;;;;;;;41.70;26.80;;;;;;;;;;5052066;28;20039;-60
2022/10/13 06:50:23;;;;;;;42.88;30.08;;;;;;;;;;5051991;28;20024;-60
2022/10/13 06:52:49;;;;;;;53.67;30.08;;;;;;;;;;5050764;28;20028;-58
2022/10/13 06:55:15;;;;;;;54.25;29.35;;;;;;;;;;5052042;28;20399;-58
2022/10/13 06:57:41;;;;;;;59.85;31.42;;;;;;;;;;5051936;28;20049;-60
2022/10/13 07:00:08;;;;;;;47.13;30.45;;;;;;;;;;5051774;28;20021;-58
2022/10/13 07:02:33;;;;;;;53.45;33.38;;;14.20;83.00;;;;;;5051914;28;20036;-56
2022/10/13 07:04:59;;;;;;;52.78;32.28;;;14.40;86.70;;;;;;5051888;28;20029;-58
2022/10/13 07:07:25;;;;;;;58.33;33.17;;;14.40;87.20;;;;;;5051766;28;20116;-57
2022/10/13 07:09:51;;;;;;;51.88;33.05;;;;;;;;;;5051646;28;20021;-58
2022/10/13 07:12:17;;;;;;;59.00;33.13;;;14.50;87.20;;;;;;5051728;28;20025;-61
2022/10/13 07:14:43;;;;;;;61.58;33.70;;;;;;;;;;5051663;28;20040;-60
2022/10/13 07:17:08;;;;;;;57.90;35.83;;;14.60;88.50;;;;;;5051727;28;20499;-61
2022/10/13 07:19:34;;;;;;;57.70;34.15;;;14.80;88.40;;;;;;5051570;28;20028;-60
2022/10/13 07:22:00;;;;;;;55.40;34.47;;;14.90;87.90;;;;;;5051516;28;20037;-60
2022/10/13 07:24:26;;;;;;;47.40;30.95;;;15.10;87.60;;;;;;5051671;28;20029;-61
2022/10/13 07:26:51;;;;;;;52.85;31.40;;;15.10;87.50;;;;;;5051254;28;20471;-60
2022/10/13 07:29:17;;;;;;;46.78;29.52;;;15.20;87.30;;;;;;5051326;28;20075;-59
2022/10/13 07:31:45;;;;;;;41.15;29.88;;;15.40;86.50;;;;;;5051549;28;20029;-59
2022/10/13 07:34:10;;;;;;;42.10;29.75;;;15.50;85.60;;;;;;5051021;28;20025;-61
2022/10/13 07:36:39;;;;;;;45.80;28.73;;;15.60;85.00;;;;;;5051407;28;20424;-61
2022/10/13 07:39:05;;;;;;;48.50;30.17;;;15.70;84.20;;;;;;5051360;28;20028;-61
2022/10/13 07:41:31;;;;;;;48.13;31.17;;;15.80;84.10;;;;;;5051359;28;20517;-60
2022/10/13 07:43:57;;;;;;;40.50;27.27;;;15.90;83.70;;;;;;5051575;28;20093;-60
2022/10/13 07:46:24;;;;;;;48.47;30.53;;;;;;;;;;5049987;28;20102;-60
2022/10/13 07:48:52;;;;;;;42.60;29.15;;;15.90;83.30;;;;;;5050058;28;20025;-58
2022/10/13 07:51:18;;;;;;;43.30;28.55;;;16.00;82.90;;;;;;5049995;28;20021;-59
2022/10/13 07:53:45;;;;;;;50.53;30.60;;;16.10;82.30;;;;;;5051394;28;20032;-59
2022/10/13 07:56:12;;;;;;;37.65;28.00;;;16.10;82.80;;;;;;5051239;28;20025;-61
2022/10/13 07:58:41;;;;;;;48.03;29.10;;;16.10;82.00;;;;;;5049905;28;20433;-60
2022/10/13 08:01:08;;;;;;;41.65;28.60;;;16.20;82.20;;;;;;5051245;28;20368;-60
2022/10/13 08:03:34;;;;;;;38.72;27.10;;;16.30;82.20;;;;;;5051326;28;20100;-61
2022/10/13 08:06:02;;;;;;;39.87;27.80;;;16.40;82.00;;;;;;5051141;28;20025;-61
2022/10/13 08:08:28;;;;;;;36.75;25.90;;;;;;;;;;5051014;28;20483;-61
2022/10/13 08:10:55;;;;;;;36.67;27.05;;;;;;;;;;5049932;28;20498;-61
2022/10/13 08:13:21;;;;;;;43.58;28.38;;;;;;;;;;5051088;28;20122;-61
2022/10/13 08:15:47;;;;;;;39.90;27.60;;;;;;;;;;5051113;28;20025;-60
2022/10/13 08:18:14;;;;;;;42.22;28.60;;;;;;;;;;5049551;28;20017;-62
2022/10/13 08:20:40;;;;;;;;;;;;;;;;;;5051455;28;20021;-60
2022/10/13 08:23:06;;;;;;;38.65;26.13;;;;;;;;;;5051031;28;19911;-60
2022/10/13 08:25:37;;;;;;;40.60;26.38;;;;;;;;;;5049839;28;20433;-58
2022/10/13 08:28:03;;;;;;;37.10;26.33;;;;;;;;;;5050915;28;20036;-59
2022/10/13 08:30:29;;;;;;;40.50;25.83;;;;;;;;;;5050895;28;20028;-61
2022/10/13 08:32:55;;;;;;;42.35;28.42;;;;;;;;;;5050956;28;20475;-61
2022/10/13 08:35:21;;;;;;;42.40;28.40;;;16.50;81.40;;;;;;5050965;28;20028;-61
2022/10/13 08:37:47;;;;;;;41.85;27.50;;;17.60;77.80;;;;;;5050798;28;20032;-60
2022/10/13 08:40:17;;;;;;;35.22;25.42;;;;;;;;;;5050757;28;20024;-61
2022/10/13 08:42:44;;;;;;;42.78;25.10;;;;;;;;;;5050824;28;20036;-61
2022/10/13 08:45:15;;;;;;;33.33;25.02;;;;;;;;;;5051515;28;20496;-60
2022/10/13 08:48:02;;;;;;;35.88;24.27;;;;;;;;;;5075252;23;20083;-56
2022/10/13 08:50:34;;;;;;;33.75;25.05;;;;;;;;;;5053890;28;20025;-57
2022/10/13 08:53:01;;;;;;;38.00;24.83;;;;;;;;;;5054596;28;20064;-56
2022/10/13 08:55:30;;;;;;;35.25;23.10;;;17.70;77.50;;;;;;5054370;28;20025;-57
2022/10/13 08:57:56;;;;;;;38.17;24.40;;;;;;;;;;5054136;28;20025;-57
2022/10/13 09:00:22;;;;;;;32.93;21.53;;;;;;;;;;5054082;28;20025;-57
2022/10/13 09:02:49;;;;;;;33.90;20.92;;;;;;;;;;5054041;28;20283;-57
2022/10/13 09:05:34;;;;;;;32.42;21.63;;;;;;;;;;5054174;28;20103;-57
2022/10/13 09:08:00;;;;;;;30.60;22.55;;;;;;;;;;5054092;28;20050;-56
2022/10/13 09:10:26;;;;;;;26.75;21.00;;;;;;;;;;5053876;28;20089;-56
2022/10/13 09:12:52;;;;;;;30.38;21.10;;;;;;;;;;5052641;28;20185;-56
2022/10/13 09:15:19;;;;;;;27.58;22.77;;;;;;;;;;5053891;28;20028;-55
2022/10/13 09:18:05;;;;;;;31.45;21.83;;;;;;;;;;5053947;28;20394;-55
2022/10/13 09:20:31;;;;;;;34.83;21.60;;;;;;;;;;5053852;28;20025;-56
2022/10/13 09:23:03;;;;;;;33.90;19.25;;;18.40;75.30;;;;;;5053767;28;20461;-57
2022/10/13 09:25:38;;;;;;;39.42;20.75;;;;;;;;;;5053655;28;20023;-57
2022/10/13 09:28:09;;;;;;;35.17;20.05;;;;;;;;;;5053778;28;20036;-57
2022/10/13 09:30:38;;;;;;;30.52;20.13;;;;;;;;;;5053684;28;20553;-55
2022/10/13 09:33:05;;;;;;;26.98;18.70;;;;;;;;;;5053716;28;20029;-56
2022/10/13 09:35:33;;;;;;;28.50;19.30;;;;;;;;;;5053582;28;20059;-57
2022/10/13 09:38:05;;;;;;;25.20;18.23;;;;;;;;;;5053453;28;20025;-56
2022/10/13 09:40:31;;;;;;;29.40;18.30;;;;;;;;;;5053594;28;20028;-57
2022/10/13 09:42:58;;;;;;;27.63;17.00;;;;;;;;;;5053434;28;20441;-57
2022/10/13 09:45:25;;;;;;;26.40;17.77;;;;;;;;;;5053405;28;20034;-57
2022/10/13 09:47:55;;;;;;;31.85;18.95;;;;;;;;;;5053167;28;20237;-58
2022/10/13 09:50:26;;;;;;;25.40;17.27;;;;;;;;;;5053164;28;20049;-58
2022/10/13 09:52:53;;;;;;;26.08;16.00;;;;;;;;;;5053290;28;20104;-56
2022/10/13 09:55:48;;;;;;;26.02;15.85;;;;;;;;;;5053204;28;20048;-58
2022/10/13 09:58:14;;;;;;;16.42;12.65;;;19.40;72.30;;;;;;5051375;28;20033;-57
2022/10/13 10:00:40;;;;;;;24.17;16.25;;;;;;;;;;5053114;28;20035;-58
2022/10/13 10:03:13;;;;;;;19.10;13.05;;;;;;;;;;5052949;28;20036;-57
2022/10/13 10:05:39;;;;;;;20.40;13.68;;;;;;;;;;5053104;28;20017;-56
2022/10/13 10:08:31;;;;;;;23.77;15.23;;;;;;;;;;5052958;28;20533;-55
2022/10/13 10:10:59;;;;;;;27.27;16.23;;;;;;;;;;5046436;28;20500;-58
2022/10/13 10:13:26;;;;;;;20.95;14.20;;;;;;;;;;5032719;28;20071;-61
2022/10/13 10:16:00;;;;;;;25.30;15.30;;;;;;;;;;5031688;28;20094;-59
2022/10/13 10:18:26;;;;;;;21.15;13.98;;;;;;;;;;5032386;28;20376;-57
2022/10/13 10:21:25;;;;;;;18.88;14.98;;;;;;;;;;5032726;28;20479;-58
2022/10/13 10:23:55;;;;;;;24.95;15.85;;;;;;;;;;5009910;28;20112;-58
2022/10/13 10:26:39;;;;;;;20.85;14.38;;;;;;;;;;5032544;28;20726;-58
2022/10/13 10:29:14;;;;;;;15.95;12.07;;;;;;;;;;5032479;28;20182;-56
2022/10/13 10:31:55;;;;;;;23.15;14.65;;;;;;;;;;5034175;28;20088;-58
2022/10/13 10:34:25;;;;;;;17.80;11.15;;;;;;;;;;5049395;28;20132;-58
2022/10/13 10:37:03;;;;;;;21.40;13.93;;;;;;;;;;5060871;28;20091;-58
2022/10/13 10:39:29;;;;;;;18.23;13.18;;;;;;;;;;5042122;28;20021;-58
2022/10/13 10:41:59;;;;;;;21.05;13.18;;;;;;;;;;5051505;28;20395;-58
2022/10/13 10:44:31;;;;;;;24.00;12.40;;;;;;;;;;5043716;28;20025;-58
2022/10/13 10:47:01;;;;;;;22.58;13.98;;;;;;;;;;5041235;28;20017;-57
2022/10/13 10:49:32;;;;;;;24.48;14.20;;;;;;;;;;5042567;28;20022;-58
2022/10/13 10:51:59;;;;;;;24.23;14.57;;;;;;;;;;5040538;28;20036;-58
2022/10/13 10:54:43;;;;;;;22.98;15.77;;;20.80;65.00;;;;;;5051904;28;20021;-57
2022/10/13 10:57:49;;;;;;;25.70;16.38;;;21.80;59.90;;;;;;5041461;28;20040;-59
2022/10/13 11:00:17;;;;;;;22.48;16.45;;;;;;;;;;5012616;28;20037;-58
2022/10/13 11:03:01;;;;;;;30.90;15.98;;;21.90;59.70;;;;;;5040757;28;20028;-59
2022/10/13 11:05:56;;;;;;;23.40;13.80;;;22.30;57.60;;;;;;5042173;28;20021;-59
2022/10/13 11:08:41;;;;;;;32.80;15.70;;;;;;;;;;5037613;28;20112;-58
2022/10/13 11:11:37;;;;;;;26.50;16.67;;;;;;;;;;5031884;28;20112;-59
2022/10/13 11:14:06;;;;;;;21.85;16.38;;;;;;;;;;5020043;28;20068;-58
2022/10/13 11:16:32;;;;;;;27.40;17.85;;;;;;;;;;5031882;28;20033;-58
2022/10/13 11:19:12;;;;;;;24.10;16.27;;;;;;;;;;5043143;28;20150;-57
2022/10/13 11:22:01;;;;;;;24.58;16.27;;;;;;;;;;5051681;28;20493;-58
2022/10/13 11:24:33;;;;;;;22.90;15.65;;;;;;;;;;5040930;28;20029;-55
2022/10/13 11:27:22;;;;;;;21.90;15.70;;;;;;;;;;5070843;28;20551;-58
2022/10/13 11:29:50;;;;;;;33.60;18.63;;;;;;;;;;5047192;28;20499;-59
2022/10/13 11:35:06;;;;;;;25.15;15.20;;;;;;;;;;5057527;28;20090;-58
2022/10/13 11:37:41;;;;;;;16.52;13.85;;;;;;;;;;5046061;28;20017;-57
2022/10/13 11:40:07;;;;;;;23.45;14.43;;;;;;;;;;5032493;28;20115;-58
2022/10/13 11:42:52;;;;;;;21.40;15.40;;;;;;;;;;5030131;28;20079;-56
2022/10/13 11:45:38;;;;;;;18.38;14.15;;;;;;;;;;5031468;28;20449;-56
2022/10/13 11:48:04;;;;;;;23.52;13.07;;;;;;;;;;5010515;28;20618;-56
2022/10/13 11:50:43;;;;;;;22.67;14.02;;;;;;;;;;5043662;28;20025;-57
2022/10/13 11:53:15;;;;;;;22.50;15.15;;;;;;;;;;5041655;28;20025;-57
2022/10/13 11:55:41;;;;;;;21.15;14.00;;;;;;;;;;5049418;28;20036;-58
2022/10/13 11:58:08;;;;;;;19.98;13.70;;;;;;;;;;5050701;28;20025;-58
2022/10/13 12:00:34;;;;;;;23.60;13.73;;;;;;;;;;5051269;28;20421;-57
2022/10/13 12:03:00;;;;;;;30.70;13.95;;;;;;;;;;5050569;28;20484;-57
2022/10/13 12:05:28;;;;;;;24.58;13.85;;;;;;;;;;5038307;28;20495;-56
2022/10/13 12:07:55;;;;;;;19.75;13.68;;;;;;;;;;5038151;28;20032;-58
2022/10/13 12:10:24;;;;;;;22.05;13.35;;;;;;;;;;5050964;28;20021;-59
2022/10/13 12:12:50;;;;;;;19.63;14.27;;;;;;;;;;5046730;28;20094;-58
2022/10/13 12:15:28;;;;;;;26.23;15.07;;;;;;;;;;5047117;28;20036;-58
2022/10/13 12:17:54;;;;;;;;;;;;;;;;;;5031561;28;20028;-58
2022/10/13 12:20:21;;;;;;;22.63;14.60;;;;;;;;;;5044902;28;19913;-58
2022/10/13 12:22:48;;;;;;;24.15;16.30;;;;;;;;;;5054777;28;20067;-57
2022/10/13 12:25:23;;;;;;;20.85;15.30;;;;;;;;;;5054906;28;20031;-58
2022/10/13 12:27:52;;;;;;;25.23;15.60;;;;;;;;;;5048330;28;20021;-58
2022/10/13 12:30:20;;;;;;;21.02;14.50;;;;;;;;;;5037488;28;20037;-59
2022/10/13 12:32:51;;;;;;;23.58;16.77;;;;;;;;;;5045306;28;20434;-58
2022/10/13 12:35:22;;;;;;;24.92;15.88;;;;;;;;;;5047452;28;20033;-57
2022/10/13 12:37:49;;;;;;;22.63;15.82;;;;;;;;;;5052692;28;20021;-58
2022/10/13 12:40:16;;;;;;;29.75;16.48;;;;;;;;;;5034805;28;20061;-58
2022/10/13 12:42:42;;;;;;;25.85;14.82;;;;;;;;;;5045329;28;20131;-58
2022/10/13 12:45:16;;;;;;;28.95;17.73;;;;;;;;;;5053426;28;20402;-58
2022/10/13 12:47:47;;;;;;;26.55;16.88;;;;;;;;;;5054195;28;20039;-57
2022/10/13 12:50:22;;;;;;;27.70;17.50;;;;;;;;;;5036737;28;20037;-57
2022/10/13 12:52:50;;;;;;;23.90;17.30;;;;;;;;;;5035572;28;20080;-59
2022/10/13 12:55:18;;;;;;;26.17;17.10;;;;;;;;;;5053529;28;20503;-59
2022/10/13 12:57:45;;;;;;;24.02;17.58;;;;;;;;;;5053947;28;20102;-59
2022/10/13 13:00:27;;;;;;;26.52;17.17;;;;;;;;;;5052473;28;20036;-57
2022/10/13 13:02:53;;;;;;;24.73;15.57;;;;;;;;;;5054009;28;20021;-58
2022/10/13 13:05:30;;;;;;;23.73;14.57;;;;;;;;;;5034637;28;20025;-58
2022/10/13 13:07:56;;;;;;;21.13;14.50;;;;;;;;;;5032852;28;20025;-58
2022/10/13 13:10:22;;;;;;;26.90;14.63;;;;;;;;;;5050314;28;20505;-57
2022/10/13 13:12:48;;;;;;;27.47;16.97;;;;;;;;;;5052283;28;20263;-56
2022/10/13 13:15:18;;;;;;;28.95;16.05;;;;;;;;;;5052723;28;20120;-59
2022/10/13 13:17:44;;;;;;;24.08;15.95;;;;;;;;;;5053839;28;20025;-58
2022/10/13 13:20:33;;;;;;;25.05;16.73;;;;;;;;;;5043749;28;20025;-56
2022/10/13 13:23:00;;;;;;;27.48;17.50;;;;;;;;;;5045691;28;20033;-58
2022/10/13 13:25:26;;;;;;;24.30;16.65;;;;;;;;;;5053135;28;20036;-58
2022/10/13 13:27:52;;;;;;;23.95;16.13;;;;;;;;;;5041885;28;20087;-57
2022/10/13 13:30:22;;;;;;;30.00;17.05;;;;;;;;;;5035635;28;20594;-58
2022/10/13 13:32:48;;;;;;;23.65;15.80;;;;;;;;;;5033432;28;20025;-58
2022/10/13 13:35:14;;;;;;;23.98;17.20;;;;;;;;;;5054259;28;20070;-57
2022/10/13 13:37:49;;;;;;;28.13;17.73;;;;;;;;;;5054537;28;20037;-57
2022/10/13 13:40:23;;;;;;;27.15;18.05;;;;;;;;;;5033461;28;20045;-55
2022/10/13 13:42:49;;;;;;;24.10;17.60;;;;;;;;;;5044605;28;20044;-57
2022/10/13 13:45:16;;;;;;;27.97;19.33;;;;;;;;;;5035087;28;20492;-58
2022/10/13 13:47:42;;;;;;;;;;;;;;;;;;5035642;28;20029;-57
2022/10/13 13:50:21;;;;;;;33.72;19.80;;;22.30;58.00;;;;;;5047106;28;19915;-55
2022/10/13 13:52:47;;;;;;;37.00;20.55;;;24.80;48.60;;;;;;5052886;28;20075;-58
2022/10/13 13:55:13;;;;;;;25.83;19.00;;;24.50;49.00;;;;;;5036939;28;20033;-56
2022/10/13 13:57:39;;;;;;;27.23;17.43;;;24.30;49.50;;;;;;5033191;28;20022;-57
2022/10/13 14:00:05;;;;;;;26.93;17.53;;;24.30;49.70;;;;;;5034262;28;20036;-57